createdAt,value
2019-05-29T00:01:20.090Z,4.20
2019-05-29T00:04:06.168Z,4.67
2019-05-29T00:06:55.146Z,7.97
2019-05-29T00:09:43.803Z,4.83
2019-05-29T00:12:31.750Z,6.03
2019-05-29T00:15:20.122Z,3.15
2019-05-29T00:18:08.332Z,5.12
2019-05-29T00:20:56.088Z,3.02
2019-05-29T00:23:44.393Z,7.90
2019-05-29T00:26:32.728Z,7.20
2019-05-29T00:29:20.671Z,5.30
2019-05-29T00:32:08.916Z,5.60
2019-05-29T00:34:57.055Z,5.05
2019-05-29T00:37:45.147Z,7.95
2019-05-29T00:40:32.989Z,4.30
2019-05-29T00:43:21.005Z,5.72
2019-05-29T00:46:09.497Z,4.95
2019-05-29T00:48:58.150Z,4.00
2019-05-29T00:51:46.254Z,5.55
2019-05-29T00:54:34.557Z,4.60
2019-05-29T00:57:23.398Z,5.20
2019-05-29T01:00:13.250Z,4.00
2019-05-29T01:03:01.839Z,4.90
2019-05-29T01:05:50.267Z,5.35
2019-05-29T01:08:38.492Z,4.30
2019-05-29T01:11:26.611Z,3.85
2019-05-29T01:14:15.159Z,6.30
2019-05-29T01:17:03.809Z,5.37
2019-05-29T01:19:51.832Z,4.40
2019-05-29T01:22:39.728Z,3.83
2019-05-29T01:25:27.379Z,8.20
2019-05-29T01:28:16.852Z,6.90
2019-05-29T01:31:05.262Z,5.97
2019-05-29T01:33:53.455Z,4.55
2019-05-29T01:36:41.067Z,6.58
2019-05-29T01:39:29.623Z,5.95
2019-05-29T01:42:17.534Z,11.83
2019-05-29T01:45:08.601Z,6.10
2019-05-29T01:47:56.870Z,6.80
2019-05-29T01:50:45.216Z,7.87
2019-05-29T01:53:33.609Z,5.40
2019-05-29T01:56:22.041Z,8.25
2019-05-29T01:59:10.057Z,8.48
2019-05-29T02:01:58.282Z,4.67
2019-05-29T02:04:46.929Z,5.80
2019-05-29T02:07:35.611Z,5.00
2019-05-29T02:10:24.345Z,4.47
2019-05-29T02:13:12.630Z,6.05
2019-05-29T02:16:01.163Z,4.33
2019-05-29T02:18:49.465Z,4.65
2019-05-29T02:21:37.756Z,5.72
2019-05-29T02:24:25.799Z,4.35
2019-05-29T02:27:14.219Z,8.83
2019-05-29T02:30:02.448Z,11.75
2019-05-29T02:32:50.621Z,7.35
2019-05-29T02:35:39.119Z,7.87
2019-05-29T02:38:27.662Z,5.60
2019-05-29T02:41:16.309Z,5.97
2019-05-29T02:44:04.541Z,5.97
2019-05-29T02:46:52.791Z,7.40
2019-05-29T02:49:41.178Z,6.92
2019-05-29T02:52:30.734Z,8.48
2019-05-29T02:55:18.451Z,7.35
2019-05-29T02:58:07.212Z,4.20
2019-05-29T03:00:55.862Z,7.45
2019-05-29T03:03:43.827Z,7.22
2019-05-29T03:06:32.554Z,6.08
2019-05-29T03:09:22.699Z,18.23
2019-05-29T03:12:12.035Z,6.87
2019-05-29T03:15:00.315Z,7.47
2019-05-29T03:17:48.034Z,6.65
2019-05-29T03:20:36.120Z,7.40
2019-05-29T03:23:24.480Z,8.65
2019-05-29T03:26:13.271Z,8.28
2019-05-29T03:29:01.411Z,9.80
2019-05-29T03:31:49.545Z,8.83
2019-05-29T03:34:45.669Z,10.35
2019-05-29T03:37:28.204Z,9.18
2019-05-29T03:40:16.345Z,7.90
2019-05-29T03:43:04.881Z,9.18
2019-05-29T03:45:52.708Z,9.43
2019-05-29T03:48:40.558Z,6.50
2019-05-29T03:51:29.668Z,5.97
2019-05-29T03:54:18.570Z,5.75
2019-05-29T03:57:06.376Z,7.83
2019-05-29T03:59:54.337Z,4.70
2019-05-29T04:02:42.230Z,4.60
2019-05-29T04:05:30.958Z,4.70
2019-05-29T04:08:19.644Z,6.33
2019-05-29T04:11:08.262Z,7.37
2019-05-29T04:13:56.319Z,5.85
2019-05-29T04:16:59.090Z,7.00
2019-05-29T04:19:38.372Z,7.12
2019-05-29T04:22:30.344Z,8.05
2019-05-29T04:25:18.276Z,8.78
2019-05-29T04:28:08.056Z,5.15
2019-05-29T04:30:56.164Z,6.37
2019-05-29T04:33:44.641Z,8.30
2019-05-29T04:36:34.853Z,8.80
2019-05-29T04:39:23.132Z,10.48
2019-05-29T04:42:11.051Z,9.43
2019-05-29T04:44:58.930Z,11.75
2019-05-29T04:47:47.238Z,6.47
2019-05-29T04:50:37.774Z,9.98
2019-05-29T04:53:24.783Z,10.10
2019-05-29T04:56:13.082Z,8.88
2019-05-29T04:59:01.598Z,7.80
2019-05-29T05:01:49.484Z,7.22
2019-05-29T05:04:37.776Z,10.88
2019-05-29T05:07:25.871Z,9.03
2019-05-29T05:10:16.741Z,11.00
2019-05-29T05:13:05.106Z,10.15
2019-05-29T05:15:55.703Z,9.23
2019-05-29T05:19:03.444Z,11.15
2019-05-29T05:21:51.405Z,10.30
2019-05-29T05:24:43.488Z,14.18
2019-05-29T05:27:28.702Z,10.50
2019-05-29T05:30:17.480Z,10.40
2019-05-29T05:33:05.518Z,12.50
2019-05-29T05:35:54.149Z,11.28
2019-05-29T05:38:42.494Z,13.13
2019-05-29T05:41:30.814Z,12.03
2019-05-29T05:44:20.316Z,10.95
2019-05-29T05:47:08.503Z,12.47
2019-05-29T05:49:56.428Z,11.97
2019-05-29T05:52:46.093Z,10.80
2019-05-29T05:55:35.445Z,11.60
2019-05-29T05:58:23.840Z,11.93
2019-05-29T06:01:12.567Z,10.88
2019-05-29T06:04:01.134Z,10.23
2019-05-29T06:06:49.616Z,14.07
2019-05-29T06:09:38.265Z,14.20
2019-05-29T06:12:26.449Z,11.35
2019-05-29T06:15:15.216Z,9.18
2019-05-29T06:18:19.786Z,8.43
2019-05-29T06:20:53.235Z,10.30
2019-05-29T06:23:41.187Z,7.22
2019-05-29T06:26:29.660Z,7.70
2019-05-29T06:29:18.342Z,8.23
2019-05-29T06:32:06.461Z,7.30
2019-05-29T06:34:54.148Z,8.68
2019-05-29T06:37:43.645Z,7.70
2019-05-29T06:40:38.305Z,7.47
2019-05-29T06:43:26.589Z,10.65
2019-05-29T06:46:15.441Z,10.30
2019-05-29T06:49:04.175Z,9.45
2019-05-29T06:51:51.867Z,6.75
2019-05-29T06:54:40.089Z,7.95
2019-05-29T06:57:27.689Z,6.70
2019-05-29T07:00:34.092Z,8.30
2019-05-29T07:03:05.551Z,10.60
2019-05-29T07:05:53.889Z,6.20
2019-05-29T07:08:44.993Z,5.87
2019-05-29T07:11:31.473Z,6.33
2019-05-29T07:14:20.123Z,9.28
2019-05-29T07:17:08.531Z,6.83
2019-05-29T07:20:03.367Z,5.85
2019-05-29T07:22:47.125Z,12.03
2019-05-29T07:25:36.741Z,7.37
2019-05-29T07:28:24.496Z,11.60
2019-05-29T07:31:12.476Z,6.30
2019-05-29T07:34:00.849Z,7.58
2019-05-29T07:36:48.976Z,10.90
2019-05-29T07:39:37.385Z,5.22
2019-05-29T07:42:25.965Z,7.17
2019-05-29T07:45:14.413Z,8.58
2019-05-29T07:48:02.078Z,9.00
2019-05-29T07:50:50.304Z,6.83
2019-05-29T07:53:38.248Z,7.80
2019-05-29T07:56:26.427Z,10.08
2019-05-29T07:59:14.373Z,6.55
2019-05-29T08:02:02.601Z,7.62
2019-05-29T08:04:50.561Z,7.40
2019-05-29T08:07:39.418Z,6.53
2019-05-29T08:10:27.972Z,10.38
2019-05-29T08:13:16.260Z,8.03
2019-05-29T08:16:04.757Z,7.62
2019-05-29T08:18:53.299Z,7.25
2019-05-29T08:21:42.684Z,8.98
2019-05-29T08:24:30.913Z,7.70
2019-05-29T08:27:19.530Z,9.20
2019-05-29T08:30:08.563Z,8.28
2019-05-29T08:32:56.756Z,7.53
2019-05-29T08:35:45.430Z,7.53
2019-05-29T08:38:34.108Z,6.90
2019-05-29T08:41:22.509Z,6.47
2019-05-29T08:44:10.830Z,6.50
2019-05-29T08:47:18.364Z,9.08
2019-05-29T08:50:17.886Z,7.60
2019-05-29T08:52:57.522Z,11.70
2019-05-29T08:55:46.111Z,7.97
2019-05-29T08:58:37.237Z,11.65
2019-05-29T09:01:23.865Z,5.42
2019-05-29T09:04:11.867Z,6.70
2019-05-29T09:07:00.427Z,5.85
2019-05-29T09:09:49.145Z,5.83
2019-05-29T09:12:37.886Z,7.00
2019-05-29T09:15:26.031Z,8.68
2019-05-29T09:18:14.982Z,8.30
2019-05-29T09:21:23.602Z,6.97
2019-05-29T09:24:12.929Z,6.92
2019-05-29T09:27:01.469Z,8.43
2019-05-29T09:29:49.958Z,8.13
2019-05-29T09:32:50.420Z,7.67
2019-05-29T09:35:29.757Z,8.20
2019-05-29T09:38:18.840Z,10.48
2019-05-29T09:41:07.247Z,9.68
2019-05-29T09:43:59.548Z,9.78
2019-05-29T09:46:45.112Z,8.25
2019-05-29T09:49:33.147Z,8.45
2019-05-29T09:52:21.241Z,8.05
2019-05-29T09:55:09.871Z,9.68
2019-05-29T09:57:58.671Z,11.70
2019-05-29T10:00:47.578Z,8.80
2019-05-29T10:03:35.425Z,11.65
2019-05-29T10:06:23.862Z,9.55
2019-05-29T10:09:11.636Z,8.58
2019-05-29T10:12:03.539Z,9.83
2019-05-29T10:14:51.370Z,11.73
2019-05-29T10:17:40.249Z,9.45
2019-05-29T10:20:48.032Z,9.25
2019-05-29T10:23:36.060Z,12.05
2019-05-29T10:26:43.953Z,7.87
2019-05-29T10:29:32.492Z,8.60
2019-05-29T10:32:20.412Z,8.03
2019-05-29T10:35:09.146Z,7.25
2019-05-29T10:37:57.654Z,6.62
2019-05-29T10:40:52.365Z,6.70
2019-05-29T10:43:35.211Z,4.85
2019-05-29T10:46:23.613Z,7.75
2019-05-29T10:49:12.544Z,7.10
2019-05-29T10:52:14.513Z,7.35
2019-05-29T10:54:50.446Z,7.28
2019-05-29T10:57:38.490Z,7.28
2019-05-29T11:00:26.398Z,7.17
2019-05-29T11:03:14.402Z,7.37
2019-05-29T11:06:02.887Z,7.90
2019-05-29T11:08:52.030Z,8.68
2019-05-29T11:11:40.676Z,9.55
2019-05-29T11:14:29.180Z,7.97
2019-05-29T11:17:17.364Z,6.50
2019-05-29T11:20:09.883Z,9.38
2019-05-29T11:22:57.839Z,12.00
2019-05-29T11:25:45.495Z,7.10
2019-05-29T11:28:34.108Z,8.48
2019-05-29T11:31:22.442Z,7.83
2019-05-29T11:34:10.924Z,9.85
2019-05-29T11:36:59.215Z,7.05
2019-05-29T11:39:47.615Z,6.33
2019-05-29T11:42:36.330Z,7.80
2019-05-29T11:45:24.542Z,7.37
2019-05-29T11:48:31.644Z,7.37
2019-05-29T11:51:19.461Z,7.87
2019-05-29T11:54:08.267Z,6.78
2019-05-29T11:56:57.362Z,7.25
2019-05-29T11:59:45.540Z,8.00
2019-05-29T12:02:33.668Z,6.78
2019-05-29T12:05:22.480Z,6.30
2019-05-29T12:08:10.463Z,5.58
2019-05-29T12:10:59.387Z,5.72
2019-05-29T12:13:47.338Z,4.95
2019-05-29T12:16:35.519Z,6.15
2019-05-29T12:19:23.920Z,5.15
2019-05-29T12:22:12.095Z,10.38
2019-05-29T12:25:00.739Z,5.37
2019-05-29T12:27:49.115Z,5.60
2019-05-29T12:30:38.369Z,4.50
2019-05-29T12:33:26.881Z,4.83
2019-05-29T12:36:15.152Z,4.35
2019-05-29T12:39:05.493Z,4.80
2019-05-29T12:41:53.348Z,3.92
2019-05-29T12:44:41.272Z,4.65
2019-05-29T12:47:29.158Z,4.85
2019-05-29T12:50:17.853Z,4.15
2019-05-29T12:53:06.882Z,4.03
2019-05-29T12:55:56.131Z,3.58
2019-05-29T12:58:44.483Z,3.65
2019-05-29T13:01:32.748Z,6.67
2019-05-29T13:04:21.498Z,4.00
2019-05-29T13:07:10.105Z,4.67
2019-05-29T13:09:58.889Z,2.55
2019-05-29T13:12:47.763Z,3.67
2019-05-29T13:15:36.321Z,4.72
2019-05-29T13:18:24.601Z,3.95
2019-05-29T13:21:12.184Z,2.87
2019-05-29T13:24:02.352Z,3.10
2019-05-29T13:26:49.576Z,3.08
2019-05-29T13:29:37.653Z,3.30
2019-05-29T13:32:25.973Z,3.65
2019-05-29T13:35:14.833Z,3.20
2019-05-29T13:38:03.291Z,2.98
2019-05-29T13:40:51.047Z,2.98
2019-05-29T13:43:39.722Z,2.70
2019-05-29T13:46:28.255Z,3.08
2019-05-29T13:49:16.378Z,3.42
2019-05-29T13:52:09.943Z,5.30
2019-05-29T13:54:54.425Z,3.02
2019-05-29T13:57:43.312Z,3.33
2019-05-29T14:00:34.426Z,4.45
2019-05-29T14:03:20.774Z,3.08
2019-05-29T14:06:09.595Z,2.60
2019-05-29T14:08:58.974Z,9.20
2019-05-29T14:11:47.769Z,8.95
2019-05-29T14:14:36.351Z,7.83
2019-05-29T14:17:24.880Z,8.25
2019-05-29T14:20:13.686Z,7.47
2019-05-29T14:23:03.205Z,8.13
2019-05-29T14:25:51.821Z,8.65
2019-05-29T14:28:40.127Z,6.60
2019-05-29T14:31:28.391Z,6.00
2019-05-29T14:34:16.976Z,5.35
2019-05-29T14:37:06.229Z,7.12
2019-05-29T14:39:55.477Z,5.15
2019-05-29T14:42:57.199Z,5.40
2019-05-29T14:45:44.991Z,8.35
2019-05-29T14:48:33.212Z,2.98
2019-05-29T14:51:21.516Z,5.20
2019-05-29T14:54:11.064Z,3.50
2019-05-29T14:56:58.807Z,5.80
2019-05-29T14:59:47.118Z,5.12
2019-05-29T15:02:35.037Z,2.83
2019-05-29T15:05:25.259Z,2.60
2019-05-29T15:08:13.996Z,3.42
2019-05-29T15:11:03.655Z,5.20
2019-05-29T15:13:51.896Z,3.85
2019-05-29T15:16:40.580Z,4.03
2019-05-29T15:19:29.040Z,4.33
2019-05-29T15:22:17.237Z,5.00
2019-05-29T15:25:19.500Z,5.85
2019-05-29T15:27:59.107Z,4.20
2019-05-29T15:30:47.715Z,3.65
2019-05-29T15:33:36.045Z,3.95
2019-05-29T15:36:24.661Z,7.40
2019-05-29T15:39:13.233Z,2.75
2019-05-29T15:42:01.044Z,4.22
2019-05-29T15:44:49.591Z,2.65
2019-05-29T15:47:37.735Z,5.60
2019-05-29T15:50:27.802Z,5.15
2019-05-29T15:53:17.251Z,4.87
2019-05-29T15:56:18.238Z,4.75
2019-05-29T15:58:55.362Z,2.20
2019-05-29T16:01:43.824Z,2.85
2019-05-29T16:04:32.007Z,3.65
2019-05-29T16:07:20.659Z,6.55
2019-05-29T16:10:13.123Z,7.78
2019-05-29T16:12:59.081Z,5.70
2019-05-29T16:15:47.438Z,4.80
2019-05-29T16:18:35.950Z,4.30
2019-05-29T16:21:23.895Z,4.85
2019-05-29T16:24:12.721Z,7.08
2019-05-29T16:27:08.755Z,3.70
2019-05-29T16:29:51.099Z,3.25
2019-05-29T16:32:39.447Z,7.12
2019-05-29T16:35:27.927Z,5.05
2019-05-29T16:38:16.012Z,3.40
2019-05-29T16:41:04.296Z,4.75
2019-05-29T16:43:52.865Z,3.27
2019-05-29T16:46:40.738Z,12.43
2019-05-29T16:49:29.120Z,5.40
2019-05-29T16:52:17.088Z,5.85
2019-05-29T16:55:06.238Z,3.98
2019-05-29T16:57:54.807Z,2.65
2019-05-29T17:00:43.338Z,4.30
2019-05-29T17:03:31.441Z,4.15
2019-05-29T17:06:20.097Z,7.20
2019-05-29T17:09:11.111Z,5.20
2019-05-29T17:11:59.486Z,5.92
2019-05-29T17:14:47.231Z,2.42
2019-05-29T17:17:35.646Z,9.95
2019-05-29T17:20:41.375Z,9.43
2019-05-29T17:23:28.972Z,7.50
2019-05-29T17:26:18.671Z,4.30
2019-05-29T17:29:06.863Z,7.25
2019-05-29T17:31:55.329Z,5.00
2019-05-29T17:34:43.650Z,3.70
2019-05-29T17:37:32.306Z,6.67
2019-05-29T17:40:21.466Z,6.58
2019-05-29T17:43:10.103Z,7.20
2019-05-29T17:45:58.614Z,3.77
2019-05-29T17:48:46.520Z,6.05
2019-05-29T17:51:35.074Z,3.05
2019-05-29T17:54:23.970Z,3.58
2019-05-29T17:57:12.513Z,3.80
2019-05-29T18:00:00.700Z,1.32
2019-05-29T18:02:52.446Z,3.02
2019-05-29T18:05:38.049Z,3.35
2019-05-29T18:08:26.989Z,3.22
2019-05-29T18:11:15.286Z,0.98
2019-05-29T18:14:07.402Z,4.50
2019-05-29T18:16:53.077Z,1.98
2019-05-29T18:19:40.710Z,1.62
2019-05-29T18:22:29.137Z,4.53
2019-05-29T18:25:18.059Z,3.55
2019-05-29T18:28:06.750Z,2.72
2019-05-29T18:30:54.906Z,2.77
2019-05-29T18:33:43.077Z,6.70
2019-05-29T18:36:31.724Z,1.60
2019-05-29T18:39:20.386Z,3.62
2019-05-29T18:42:07.904Z,2.55
2019-05-29T18:44:56.593Z,4.87
2019-05-29T18:47:44.678Z,2.62
2019-05-29T18:50:32.859Z,4.65
2019-05-29T18:53:21.073Z,4.00
2019-05-29T18:56:08.902Z,3.42
2019-05-29T18:58:56.702Z,3.87
2019-05-29T19:01:45.278Z,6.92
2019-05-29T19:04:33.864Z,2.87
2019-05-29T19:07:23.698Z,7.35
2019-05-29T19:10:12.575Z,4.55
2019-05-29T19:13:00.236Z,1.75
2019-05-29T19:15:48.446Z,5.22
2019-05-29T19:18:36.843Z,3.10
2019-05-29T19:21:24.819Z,4.53
2019-05-29T19:24:13.227Z,5.37
2019-05-29T19:27:01.830Z,2.12
2019-05-29T19:29:49.904Z,5.72
2019-05-29T19:32:38.354Z,2.55
2019-05-29T19:35:27.338Z,2.90
2019-05-29T19:38:15.968Z,4.40
2019-05-29T19:41:04.110Z,4.67
2019-05-29T19:43:52.316Z,3.58
2019-05-29T19:46:53.311Z,1.98
2019-05-29T19:49:30.898Z,2.77
2019-05-29T19:52:19.163Z,3.40
2019-05-29T19:55:07.842Z,2.42
2019-05-29T19:57:56.932Z,1.98
2019-05-29T20:00:45.140Z,1.98
2019-05-29T20:03:34.667Z,2.27
2019-05-29T20:06:23.129Z,4.12
2019-05-29T20:09:11.510Z,3.47
2019-05-29T20:12:00.192Z,3.02
2019-05-29T20:14:48.842Z,6.22
2019-05-29T20:17:38.341Z,4.28
2019-05-29T20:20:28.170Z,3.95
2019-05-29T20:23:16.554Z,5.10
2019-05-29T20:26:04.764Z,4.03
2019-05-29T20:28:52.806Z,7.87
2019-05-29T20:31:42.761Z,5.60
2019-05-29T20:34:32.547Z,6.25
2019-05-29T20:37:20.634Z,4.00
2019-05-29T20:40:09.370Z,4.60
2019-05-29T20:42:57.671Z,2.80
2019-05-29T20:45:45.950Z,6.80
2019-05-29T20:48:34.603Z,4.53
2019-05-29T20:51:23.077Z,2.98
2019-05-29T20:54:11.237Z,4.42
2019-05-29T20:57:01.308Z,5.37
2019-05-29T20:59:49.313Z,4.78
2019-05-29T21:02:37.941Z,2.47
2019-05-29T21:05:26.419Z,3.70
2019-05-29T21:08:14.137Z,4.67
2019-05-29T21:11:02.561Z,5.00
2019-05-29T21:13:50.947Z,2.62
2019-05-29T21:16:39.768Z,3.83
2019-05-29T21:19:28.167Z,3.95
2019-05-29T21:22:16.339Z,3.58
2019-05-29T21:25:11.409Z,5.22
2019-05-29T21:27:56.071Z,3.95
2019-05-29T21:30:45.589Z,3.52
2019-05-29T21:33:35.683Z,3.58
2019-05-29T21:36:23.891Z,3.37
2019-05-29T21:39:12.107Z,3.90
2019-05-29T21:42:00.285Z,3.50
2019-05-29T21:44:48.200Z,5.08
2019-05-29T21:47:37.059Z,3.02
2019-05-29T21:50:25.427Z,4.93
2019-05-29T21:53:13.208Z,6.00
2019-05-29T21:56:01.105Z,5.00
2019-05-29T21:59:02.701Z,6.60
2019-05-29T22:01:39.807Z,5.67
2019-05-29T22:04:27.799Z,5.87
2019-05-29T22:07:16.614Z,5.90
2019-05-29T22:10:08.623Z,5.03
2019-05-29T22:12:56.962Z,5.10
2019-05-29T22:15:45.479Z,6.35
2019-05-29T22:18:33.166Z,5.30
2019-05-29T22:21:21.862Z,5.55
2019-05-29T22:24:10.134Z,5.95
2019-05-29T22:26:59.318Z,5.22
2019-05-29T22:29:47.193Z,5.67
2019-05-29T22:32:35.403Z,7.62
2019-05-29T22:35:23.689Z,6.20
2019-05-29T22:38:11.942Z,7.50
2019-05-29T22:41:00.006Z,9.73
2019-05-29T22:43:47.830Z,5.97
2019-05-29T22:46:35.730Z,5.60
2019-05-29T22:49:24.016Z,5.85
2019-05-29T22:52:12.018Z,7.27
2019-05-29T22:55:00.470Z,10.03
2019-05-29T22:57:49.131Z,5.40
2019-05-29T23:00:37.535Z,6.10
2019-05-29T23:03:25.366Z,5.15
2019-05-29T23:06:13.889Z,6.97
2019-05-29T23:09:02.676Z,7.00
2019-05-29T23:11:52.087Z,6.15
2019-05-29T23:14:40.654Z,7.50
2019-05-29T23:17:28.891Z,12.55
2019-05-29T23:20:17.124Z,12.53
2019-05-29T23:23:05.321Z,8.95
2019-05-29T23:25:54.457Z,8.03
2019-05-29T23:28:42.861Z,9.95
2019-05-29T23:31:31.251Z,11.12
2019-05-29T23:34:19.259Z,8.23
2019-05-29T23:37:07.547Z,8.20
2019-05-29T23:39:57.112Z,8.43
2019-05-29T23:42:44.880Z,9.80
2019-05-29T23:45:33.263Z,10.70
2019-05-29T23:48:21.331Z,8.70
2019-05-29T23:51:09.800Z,13.83
2019-05-29T23:53:57.767Z,8.90
2019-05-29T23:56:45.697Z,8.18
2019-05-29T23:59:34.092Z,9.85
